createdAt,value
2022-12-08T00:01:27.629Z,98039.81
2022-12-08T00:03:56.366Z,98037.63
2022-12-08T00:06:48.597Z,98039.53
2022-12-08T00:09:23.323Z,98050.50
2022-12-08T00:11:58.488Z,98051.47
2022-12-08T00:14:54.758Z,98055.06
2022-12-08T00:17:22.441Z,98047.00
2022-12-08T00:19:50.713Z,98032.28
2022-12-08T00:22:17.802Z,98041.75
2022-12-08T00:24:47.563Z,98044.38
2022-12-08T00:27:16.887Z,98043.09
2022-12-08T00:29:45.116Z,98051.94
2022-12-08T00:32:12.765Z,98047.75
2022-12-08T00:34:40.086Z,98052.06
2022-12-08T00:37:07.409Z,98058.78
2022-12-08T00:39:34.203Z,98062.38
2022-12-08T00:42:12.773Z,98057.13
2022-12-08T00:44:43.884Z,98069.69
2022-12-08T00:47:12.199Z,98060.31
2022-12-08T00:49:39.355Z,98057.25
2022-12-08T00:52:06.315Z,98044.44
2022-12-08T00:54:33.109Z,98053.94
2022-12-08T00:57:00.049Z,98060.91
2022-12-08T00:59:26.864Z,98052.88
2022-12-08T01:01:53.721Z,98058.59
2022-12-08T01:04:21.196Z,98066.91
2022-12-08T01:06:48.530Z,98069.75
2022-12-08T01:09:17.177Z,98064.03
2022-12-08T01:11:44.749Z,98064.88
2022-12-08T01:14:12.565Z,98070.91
2022-12-08T01:16:41.584Z,98070.50
2022-12-08T01:19:10.853Z,98073.06
2022-12-08T01:21:38.046Z,98067.72
2022-12-08T01:24:05.389Z,98063.13
2022-12-08T01:26:32.222Z,98059.75
2022-12-08T01:28:59.150Z,98069.31
2022-12-08T01:31:26.081Z,98064.09
2022-12-08T01:33:53.432Z,98068.03
2022-12-08T01:36:26.044Z,98073.78
2022-12-08T01:38:54.173Z,98073.69
2022-12-08T01:41:24.546Z,98056.06
2022-12-08T01:43:58.155Z,98058.44
2022-12-08T01:46:25.642Z,98044.72
2022-12-08T01:48:57.074Z,98045.34
2022-12-08T01:51:24.690Z,98036.28
2022-12-08T01:53:52.128Z,98046.22
2022-12-08T01:56:51.959Z,98045.88
2022-12-08T01:59:19.404Z,98042.38
2022-12-08T02:01:51.341Z,98037.88
2022-12-08T02:04:18.307Z,98041.28
2022-12-08T02:06:47.674Z,98047.50
2022-12-08T02:09:15.001Z,98049.00
2022-12-08T02:11:41.898Z,98049.28
2022-12-08T02:14:11.883Z,98049.41
2022-12-08T02:16:50.441Z,98051.97
2022-12-08T02:19:54.789Z,98058.09
2022-12-08T02:22:39.955Z,98063.75
2022-12-08T02:25:42.721Z,98053.38
2022-12-08T02:28:34.265Z,98061.16
2022-12-08T02:31:38.632Z,98053.34
2022-12-08T02:34:17.734Z,98051.38
2022-12-08T02:36:57.828Z,98052.81
2022-12-08T02:39:36.831Z,98051.28
2022-12-08T02:42:31.887Z,98057.38
2022-12-08T02:45:15.219Z,98058.44
2022-12-08T02:47:43.139Z,98060.44
2022-12-08T02:50:10.705Z,98069.66
2022-12-08T02:52:46.344Z,98062.78
2022-12-08T02:55:19.243Z,98062.16
2022-12-08T02:58:15.366Z,98058.72
2022-12-08T03:01:14.917Z,98060.75
2022-12-08T03:03:54.778Z,98063.69
2022-12-08T03:06:32.101Z,98064.63
2022-12-08T03:09:10.909Z,98064.97
2022-12-08T03:11:48.227Z,98062.59
2022-12-08T03:14:16.531Z,98072.34
2022-12-08T03:16:47.307Z,98076.50
2022-12-08T03:19:20.048Z,98071.16
2022-12-08T03:21:51.523Z,98062.84
2022-12-08T03:24:21.166Z,98053.03
2022-12-08T03:26:57.187Z,98056.41
2022-12-08T03:29:24.704Z,98043.69
2022-12-08T03:31:58.908Z,98053.84
2022-12-08T03:34:28.294Z,98044.94
2022-12-08T03:36:55.169Z,98052.00
2022-12-08T03:39:22.229Z,98043.00
2022-12-08T03:41:49.017Z,98048.03
2022-12-08T03:44:15.713Z,98058.94
2022-12-08T03:46:42.608Z,98052.63
2022-12-08T03:49:09.447Z,98048.78
2022-12-08T03:51:36.597Z,98050.03
2022-12-08T03:54:04.298Z,98055.31
2022-12-08T03:56:37.439Z,98059.19
2022-12-08T03:59:05.618Z,98058.97
2022-12-08T04:01:32.791Z,98071.78
2022-12-08T04:04:00.913Z,98075.09
2022-12-08T04:06:27.956Z,98074.44
2022-12-08T04:08:55.323Z,98077.66
2022-12-08T04:11:22.517Z,98076.56
2022-12-08T04:13:49.598Z,98078.06
2022-12-08T04:16:19.180Z,98080.53
2022-12-08T04:18:47.384Z,98080.53
2022-12-08T04:21:14.349Z,98068.44
2022-12-08T04:23:42.380Z,98077.41
2022-12-08T04:26:09.776Z,98071.66
2022-12-08T04:28:37.328Z,98075.00
2022-12-08T04:31:04.750Z,98077.09
2022-12-08T04:33:34.221Z,98070.56
2022-12-08T04:36:01.663Z,98079.41
2022-12-08T04:38:29.965Z,98075.81
2022-12-08T04:40:57.725Z,98075.53
2022-12-08T04:43:25.622Z,98085.94
2022-12-08T04:45:52.388Z,98085.84
2022-12-08T04:48:19.737Z,98075.91
2022-12-08T04:50:46.892Z,98072.72
2022-12-08T04:53:14.767Z,98080.81
2022-12-08T04:55:44.539Z,98081.66
2022-12-08T04:58:16.875Z,98089.38
2022-12-08T05:00:45.387Z,98090.78
2022-12-08T05:03:13.036Z,98086.06
2022-12-08T05:05:40.998Z,98076.88
2022-12-08T05:08:09.802Z,98084.78
2022-12-08T05:10:37.360Z,98094.53
2022-12-08T05:13:04.305Z,98111.19
2022-12-08T05:15:31.813Z,98098.81
2022-12-08T05:17:58.638Z,98102.94
2022-12-08T05:20:25.831Z,98100.38
2022-12-08T05:22:52.734Z,98091.97
2022-12-08T05:25:19.623Z,98106.28
2022-12-08T05:27:46.552Z,98104.50
2022-12-08T05:30:13.550Z,98102.13
2022-12-08T05:32:40.425Z,98100.63
2022-12-08T05:35:07.551Z,98096.13
2022-12-08T05:37:34.387Z,98100.22
2022-12-08T05:40:01.246Z,98090.06
2022-12-08T05:42:28.049Z,98101.88
2022-12-08T05:44:54.760Z,98100.47
2022-12-08T05:47:21.559Z,98096.13
2022-12-08T05:49:48.654Z,98100.69
2022-12-08T05:52:16.994Z,98099.03
2022-12-08T05:54:44.255Z,98110.72
2022-12-08T05:57:11.098Z,98115.94
2022-12-08T05:59:39.164Z,98123.00
2022-12-08T06:02:06.230Z,98120.59
2022-12-08T06:04:33.212Z,98104.19
2022-12-08T06:07:00.066Z,98118.13
2022-12-08T06:09:27.214Z,98109.78
2022-12-08T06:11:54.336Z,98103.88
2022-12-08T06:14:21.198Z,98105.47
2022-12-08T06:16:48.608Z,98109.97
2022-12-08T06:19:16.285Z,98116.41
2022-12-08T06:21:43.810Z,98122.94
2022-12-08T06:24:11.000Z,98129.03
2022-12-08T06:26:40.234Z,98132.56
2022-12-08T06:29:07.499Z,98135.44
2022-12-08T06:31:34.803Z,98127.41
2022-12-08T06:34:01.725Z,98130.84
2022-12-08T06:36:29.557Z,98143.13
2022-12-08T06:38:56.749Z,98129.84
2022-12-08T06:41:24.126Z,98122.31
2022-12-08T06:43:51.122Z,98130.25
2022-12-08T06:46:19.649Z,98130.91
2022-12-08T06:48:47.251Z,98133.72
2022-12-08T06:51:17.081Z,98120.56
2022-12-08T06:53:45.078Z,98117.84
2022-12-08T06:56:13.218Z,98110.78
2022-12-08T06:58:40.150Z,98118.25
2022-12-08T07:01:09.915Z,98130.25
2022-12-08T07:03:37.893Z,98132.41
2022-12-08T07:06:05.331Z,98131.34
2022-12-08T07:08:33.255Z,98136.66
2022-12-08T07:11:00.517Z,98128.50
2022-12-08T07:13:27.390Z,98127.53
2022-12-08T07:15:54.237Z,98132.31
2022-12-08T07:18:21.047Z,98135.19
2022-12-08T07:20:47.925Z,98135.47
2022-12-08T07:23:15.209Z,98131.38
2022-12-08T07:25:42.013Z,98120.22
2022-12-08T07:28:11.043Z,98126.53
2022-12-08T07:30:38.985Z,98128.09
2022-12-08T07:33:06.714Z,98133.34
2022-12-08T07:35:34.974Z,98146.75
2022-12-08T07:38:03.520Z,98148.41
2022-12-08T07:40:30.389Z,98144.09
2022-12-08T07:42:57.764Z,98133.97
2022-12-08T07:45:31.275Z,98142.78
2022-12-08T07:47:58.942Z,98147.19
2022-12-08T07:50:25.978Z,98153.06
2022-12-08T07:52:53.095Z,98156.78
2022-12-08T07:55:19.742Z,98148.34
2022-12-08T07:57:50.313Z,98142.44
2022-12-08T08:00:18.407Z,98147.09
2022-12-08T08:02:45.583Z,98144.69
2022-12-08T08:05:13.166Z,98146.78
2022-12-08T08:07:43.287Z,98155.69
2022-12-08T08:10:13.106Z,98156.78
2022-12-08T08:12:40.323Z,98149.09
2022-12-08T08:15:08.817Z,98161.78
2022-12-08T08:17:37.642Z,98149.34
2022-12-08T08:20:09.637Z,98150.56
2022-12-08T08:22:37.262Z,98147.25
2022-12-08T08:25:04.283Z,98150.56
2022-12-08T08:27:31.663Z,98151.13
2022-12-08T08:29:58.655Z,98151.66
2022-12-08T08:32:25.783Z,98157.16
2022-12-08T08:34:53.040Z,98160.56
2022-12-08T08:37:21.916Z,98164.59
2022-12-08T08:39:48.759Z,98156.41
2022-12-08T08:42:16.247Z,98150.81
2022-12-08T08:44:43.038Z,98158.38
2022-12-08T08:47:10.042Z,98154.69
2022-12-08T08:49:37.138Z,98145.53
2022-12-08T08:52:05.488Z,98147.94
2022-12-08T08:54:32.690Z,98148.66
2022-12-08T08:57:00.933Z,98145.81
2022-12-08T08:59:28.362Z,98150.00
2022-12-08T09:01:55.991Z,98147.47
2022-12-08T09:04:23.781Z,98142.88
2022-12-08T09:06:50.751Z,98136.25
2022-12-08T09:09:18.219Z,98137.38
2022-12-08T09:11:45.372Z,98129.06
2022-12-08T09:14:14.854Z,98115.44
2022-12-08T09:16:42.742Z,98115.84
2022-12-08T09:19:09.964Z,98113.72
2022-12-08T09:21:36.849Z,98108.63
2022-12-08T09:24:04.827Z,98103.81
2022-12-08T09:26:31.943Z,98110.03
2022-12-08T09:28:58.895Z,98095.78
2022-12-08T09:31:26.793Z,98088.88
2022-12-08T09:33:53.750Z,98086.72
2022-12-08T09:36:21.634Z,98076.78
2022-12-08T09:38:51.702Z,98084.47
2022-12-08T09:41:37.591Z,98082.50
2022-12-08T09:44:42.510Z,98075.41
2022-12-08T09:47:14.920Z,98087.84
2022-12-08T09:49:51.054Z,98067.25
2022-12-08T09:52:36.036Z,98063.97
2022-12-08T09:55:10.671Z,98065.97
2022-12-08T09:57:37.783Z,98072.69
2022-12-08T10:00:06.977Z,98065.44
2022-12-08T10:02:34.656Z,98061.88
2022-12-08T10:05:01.778Z,98053.09
2022-12-08T10:07:56.433Z,98053.09
2022-12-08T10:10:48.205Z,98050.38
2022-12-08T10:13:53.276Z,98049.03
2022-12-08T10:16:30.179Z,98047.53
2022-12-08T10:19:21.571Z,98042.59
2022-12-08T10:21:49.034Z,98029.91
2022-12-08T10:24:40.873Z,98024.03
2022-12-08T10:27:14.226Z,98013.34
2022-12-08T10:29:41.643Z,98012.63
2022-12-08T10:32:19.044Z,98014.34
2022-12-08T10:35:00.265Z,98000.50
2022-12-08T10:37:27.358Z,98009.53
2022-12-08T10:40:17.363Z,97991.81
2022-12-08T10:42:53.630Z,97990.31
2022-12-08T10:45:23.680Z,97996.16
2022-12-08T10:48:04.271Z,97990.88
2022-12-08T10:50:43.066Z,97982.38
2022-12-08T10:53:10.100Z,97983.88
2022-12-08T10:55:48.964Z,97982.31
2022-12-08T10:58:35.307Z,97969.00
2022-12-08T11:01:10.406Z,97959.91
2022-12-08T11:03:59.938Z,97955.88
2022-12-08T11:06:32.603Z,97959.97
2022-12-08T11:09:22.807Z,97948.78
2022-12-08T11:11:54.892Z,97965.06
2022-12-08T11:14:26.459Z,97963.00
2022-12-08T11:17:05.156Z,97951.25
2022-12-08T11:19:38.096Z,97947.16
2022-12-08T11:22:35.784Z,97950.75
2022-12-08T11:25:03.364Z,97951.28
2022-12-08T11:27:32.858Z,97949.91
2022-12-08T11:30:02.284Z,97960.75
2022-12-08T11:32:29.968Z,97957.53
2022-12-08T11:35:04.570Z,97956.16
2022-12-08T11:37:43.494Z,97946.88
2022-12-08T11:40:23.771Z,97934.19
2022-12-08T11:43:06.898Z,97936.97
2022-12-08T11:45:36.204Z,97931.72
2022-12-08T11:48:05.712Z,97922.91
2022-12-08T11:50:51.242Z,97928.31
2022-12-08T11:53:39.170Z,97924.09
2022-12-08T11:56:39.388Z,97920.03
2022-12-08T11:59:15.883Z,97899.31
2022-12-08T12:01:43.378Z,97903.22
2022-12-08T12:04:31.285Z,97909.34
2022-12-08T12:07:12.608Z,97899.31
2022-12-08T12:09:57.455Z,97893.03
2022-12-08T12:12:46.071Z,97889.31
2022-12-08T12:15:37.480Z,97889.97
2022-12-08T12:18:29.469Z,97889.47
2022-12-08T12:21:19.421Z,97880.47
2022-12-08T12:24:03.834Z,97888.28
2022-12-08T12:26:38.324Z,97889.78
2022-12-08T12:29:16.884Z,97888.09
2022-12-08T12:31:50.189Z,97889.94
2022-12-08T12:34:19.659Z,97888.72
2022-12-08T12:37:07.445Z,97884.00
2022-12-08T12:39:45.912Z,97873.16
2022-12-08T12:42:41.333Z,97879.09
2022-12-08T12:45:17.160Z,97873.66
2022-12-08T12:47:56.629Z,97868.59
2022-12-08T12:50:38.693Z,97869.59
2022-12-08T12:53:18.093Z,97873.13
2022-12-08T12:56:12.972Z,97875.19
2022-12-08T12:58:41.141Z,97858.06
2022-12-08T13:01:11.360Z,97873.88
2022-12-08T13:03:51.862Z,97868.78
2022-12-08T13:06:35.541Z,97859.63
2022-12-08T13:09:02.549Z,97859.59
2022-12-08T13:11:29.455Z,97863.34
2022-12-08T13:14:04.968Z,97861.31
2022-12-08T13:16:34.512Z,97846.41
2022-12-08T13:19:04.889Z,97848.09
2022-12-08T13:21:39.122Z,97862.31
2022-12-08T13:24:18.119Z,97857.25
2022-12-08T13:26:46.762Z,97861.47
2022-12-08T13:29:24.170Z,97856.22
2022-12-08T13:32:03.473Z,97871.31
2022-12-08T13:34:34.833Z,97869.44
2022-12-08T13:37:13.820Z,97869.59
2022-12-08T13:39:40.948Z,97871.31
2022-12-08T13:42:35.702Z,97859.94
2022-12-08T13:57:29.791Z,97854.84
2022-12-08T14:00:01.668Z,97855.50
2022-12-08T14:02:35.299Z,97861.09
2022-12-08T14:05:20.324Z,97862.28
2022-12-08T14:07:53.696Z,97870.97
2022-12-08T14:10:27.783Z,97860.78
2022-12-08T14:13:05.691Z,97859.09
2022-12-08T14:15:37.824Z,97863.38
2022-12-08T14:18:07.120Z,97865.06
2022-12-08T14:20:51.878Z,97859.09
2022-12-08T14:23:22.381Z,97863.34
2022-12-08T14:25:49.343Z,97866.72
2022-12-08T14:28:16.789Z,97862.00
2022-12-08T14:30:43.933Z,97858.09
2022-12-08T14:33:17.236Z,97860.44
2022-12-08T14:35:51.004Z,97865.69
2022-12-08T14:38:19.824Z,97856.69
2022-12-08T14:41:07.143Z,97858.19
2022-12-08T14:43:34.197Z,97873.22
2022-12-08T14:46:05.144Z,97872.25
2022-12-08T14:48:33.700Z,97879.34
2022-12-08T14:51:16.409Z,97879.94
2022-12-08T14:54:05.766Z,97876.50
2022-12-08T14:56:40.267Z,97880.19
2022-12-08T14:59:21.041Z,97871.97
2022-12-08T15:01:51.623Z,97855.94
2022-12-08T15:04:24.321Z,97858.88
2022-12-08T15:06:58.656Z,97871.34
2022-12-08T15:09:46.244Z,97867.03
2022-12-08T15:12:13.080Z,97875.06
2022-12-08T15:14:55.229Z,97878.50
2022-12-08T15:17:40.417Z,97888.03
2022-12-08T15:20:34.577Z,97891.47
2022-12-08T15:23:02.827Z,97888.38
2022-12-08T15:25:29.920Z,97881.34
2022-12-08T15:27:58.125Z,97890.91
2022-12-08T15:30:28.852Z,97899.50
2022-12-08T15:32:56.507Z,97902.84
2022-12-08T15:35:23.464Z,97908.00
2022-12-08T15:37:50.425Z,97897.97
2022-12-08T15:40:20.315Z,97910.50
2022-12-08T15:42:47.471Z,97901.03
2022-12-08T15:45:15.638Z,97897.63
2022-12-08T15:47:44.538Z,97894.81
2022-12-08T15:50:17.599Z,97908.44
2022-12-08T15:52:44.526Z,97903.34
2022-12-08T15:55:16.740Z,97914.03
2022-12-08T16:00:53.483Z,97892.28
2022-12-08T16:09:42.665Z,97900.56
2022-12-08T16:13:13.899Z,97909.38
2022-12-08T16:18:23.273Z,97913.66
2022-12-08T16:23:45.224Z,97923.31
2022-12-08T16:29:06.432Z,97926.28
2022-12-08T16:31:33.860Z,97920.19
2022-12-08T16:34:00.846Z,97922.16
2022-12-08T16:36:27.785Z,97921.75
2022-12-08T16:38:54.566Z,97925.44
2022-12-08T16:41:40.372Z,97931.25
2022-12-08T16:44:07.239Z,97937.78
2022-12-08T16:46:34.931Z,97933.22
2022-12-08T16:49:01.890Z,97941.19
2022-12-08T16:51:28.812Z,97947.28
2022-12-08T16:53:57.174Z,97957.22
2022-12-08T16:56:31.930Z,97958.50
2022-12-08T16:58:59.426Z,97976.38
2022-12-08T17:01:26.388Z,97979.78
2022-12-08T17:04:22.373Z,97978.22
2022-12-08T17:06:40.687Z,97980.75
2022-12-08T17:09:07.753Z,97975.81
2022-12-08T17:11:40.805Z,97972.97
2022-12-08T17:14:09.850Z,97971.81
2022-12-08T17:16:36.802Z,97981.06
2022-12-08T17:19:03.752Z,97960.47
2022-12-08T17:21:30.706Z,97966.03
2022-12-08T17:23:59.981Z,97959.94
2022-12-08T17:26:26.984Z,97966.72
2022-12-08T17:29:01.630Z,97974.69
2022-12-08T17:31:31.034Z,97973.09
2022-12-08T17:34:04.643Z,97982.22
2022-12-08T17:36:31.909Z,97980.22
2022-12-08T17:38:59.919Z,97980.78
2022-12-08T17:41:27.408Z,97982.22
2022-12-08T17:43:54.325Z,97980.50
2022-12-08T17:46:22.786Z,97983.31
2022-12-08T17:48:50.052Z,97979.50
2022-12-08T17:51:17.587Z,97980.94
2022-12-08T17:53:44.684Z,97989.41
2022-12-08T17:56:17.846Z,97993.09
2022-12-08T17:58:47.534Z,97997.78
2022-12-08T18:01:18.156Z,97995.66
2022-12-08T18:03:45.086Z,98006.88
2022-12-08T18:06:12.787Z,98005.28
2022-12-08T18:08:40.733Z,97991.69
2022-12-08T18:11:13.810Z,97996.09
2022-12-08T18:13:40.814Z,97999.31
2022-12-08T18:16:07.945Z,98002.16
2022-12-08T18:18:34.780Z,98006.25
2022-12-08T18:21:01.721Z,98004.66
2022-12-08T18:23:28.668Z,98012.03
2022-12-08T18:25:55.575Z,98018.44
2022-12-08T18:28:22.414Z,98022.22
2022-12-08T18:30:49.588Z,98018.84
2022-12-08T18:33:16.488Z,98027.94
2022-12-08T18:35:43.341Z,98020.97
2022-12-08T18:38:10.252Z,98021.66
2022-12-08T18:40:37.298Z,98031.00
2022-12-08T18:43:04.234Z,98023.06
2022-12-08T18:45:31.356Z,98012.69
2022-12-08T18:47:58.257Z,98028.13
2022-12-08T18:50:25.051Z,98027.88
2022-12-08T18:52:51.999Z,98027.53
2022-12-08T18:55:18.950Z,98034.59
2022-12-08T18:57:45.910Z,98050.75
2022-12-08T19:00:15.929Z,98059.81
2022-12-08T19:02:43.594Z,98062.31
2022-12-08T19:05:12.370Z,98060.31
2022-12-08T19:07:39.788Z,98067.72
2022-12-08T19:10:07.798Z,98068.38
2022-12-08T19:12:34.857Z,98061.47
2022-12-08T19:15:01.814Z,98068.69
2022-12-08T19:17:29.815Z,98069.69
2022-12-08T19:19:56.724Z,98072.50
2022-12-08T19:22:23.605Z,98069.94
2022-12-08T19:24:50.548Z,98075.44
2022-12-08T19:27:17.477Z,98080.97
2022-12-08T19:29:44.358Z,98073.63
2022-12-08T19:32:11.321Z,98074.63
2022-12-08T19:34:38.230Z,98076.34
2022-12-08T19:37:05.214Z,98073.34
2022-12-08T19:39:50.555Z,98071.38
2022-12-08T19:42:38.949Z,98086.69
2022-12-08T19:45:19.064Z,98094.88
2022-12-08T19:47:45.980Z,98087.69
2022-12-08T19:50:33.576Z,98098.28
2022-12-08T19:53:01.202Z,98099.19
2022-12-08T19:55:28.378Z,98103.97
2022-12-08T19:57:56.871Z,98109.81
2022-12-08T20:00:24.219Z,98105.03
2022-12-08T20:02:51.574Z,98103.16
2022-12-08T20:05:18.919Z,98107.72
2022-12-08T20:07:46.561Z,98116.44
2022-12-08T20:10:23.788Z,98121.03
2022-12-08T20:12:51.825Z,98122.16
2022-12-08T20:15:19.389Z,98117.31
2022-12-08T20:17:46.440Z,98114.91
2022-12-08T20:20:14.518Z,98112.22
2022-12-08T20:22:42.651Z,98108.16
2022-12-08T20:25:12.756Z,98103.75
2022-12-08T20:27:40.523Z,98094.72
2022-12-08T20:30:13.341Z,98109.41
2022-12-08T20:32:43.584Z,98115.91
2022-12-08T20:35:10.385Z,98108.22
2022-12-08T20:37:37.426Z,98107.38
2022-12-08T20:40:06.161Z,98106.53
2022-12-08T20:42:33.313Z,98109.06
2022-12-08T20:45:00.295Z,98116.16
2022-12-08T20:47:27.218Z,98114.44
2022-12-08T20:49:54.530Z,98123.53
2022-12-08T20:52:21.399Z,98129.75
2022-12-08T20:54:48.355Z,98134.69
2022-12-08T20:57:15.529Z,98139.94
2022-12-08T20:59:42.690Z,98131.28
2022-12-08T21:02:11.107Z,98137.00
2022-12-08T21:04:39.564Z,98132.31
2022-12-08T21:07:08.919Z,98128.91
2022-12-08T21:09:36.971Z,98133.25
2022-12-08T21:12:04.477Z,98130.69
2022-12-08T21:14:31.485Z,98125.88
2022-12-08T21:16:58.526Z,98125.63
2022-12-08T21:19:25.494Z,98129.03
2022-12-08T21:21:52.589Z,98127.50
2022-12-08T21:24:19.441Z,98121.63
2022-12-08T21:26:46.491Z,98130.97
2022-12-08T21:29:13.744Z,98134.03
2022-12-08T21:31:40.952Z,98141.25
2022-12-08T21:34:08.271Z,98145.69
2022-12-08T21:36:35.392Z,98138.81
2022-12-08T21:39:02.853Z,98154.66
2022-12-08T21:41:49.034Z,98145.09
2022-12-08T21:44:20.177Z,98152.03
2022-12-08T21:46:47.448Z,98158.66
2022-12-08T21:49:14.829Z,98152.03
2022-12-08T21:51:42.351Z,98149.09
2022-12-08T21:54:18.712Z,98151.19
2022-12-08T21:56:47.592Z,98155.25
2022-12-08T21:59:15.570Z,98164.53
2022-12-08T22:01:45.410Z,98157.34
2022-12-08T22:04:16.060Z,98166.00
2022-12-08T22:06:43.532Z,98149.00
2022-12-08T22:09:13.455Z,98162.59
2022-12-08T22:11:41.394Z,98147.50
2022-12-08T22:14:14.162Z,98154.47
2022-12-08T22:16:42.282Z,98146.41
2022-12-08T22:19:09.479Z,98154.22
2022-12-08T22:21:38.235Z,98146.88
2022-12-08T22:24:06.197Z,98147.13
2022-12-08T22:26:33.587Z,98146.34
2022-12-08T22:29:00.604Z,98156.38
2022-12-08T22:31:27.796Z,98152.75
2022-12-08T22:33:55.059Z,98154.84
2022-12-08T22:36:24.525Z,98151.91
2022-12-08T22:38:52.907Z,98150.38
2022-12-08T22:41:20.647Z,98159.97
2022-12-08T22:43:48.633Z,98147.50
2022-12-08T22:46:19.218Z,98146.59
2022-12-08T22:48:46.991Z,98145.75
2022-12-08T22:51:13.984Z,98151.25
2022-12-08T22:53:41.306Z,98146.59
2022-12-08T22:56:11.105Z,98138.50
2022-12-08T22:58:39.489Z,98143.38
2022-12-08T23:01:07.688Z,98140.41
2022-12-08T23:03:35.398Z,98139.28
2022-12-08T23:06:02.396Z,98143.38
2022-12-08T23:08:29.562Z,98145.94
2022-12-08T23:10:56.525Z,98149.44
2022-12-08T23:13:23.840Z,98143.03
2022-12-08T23:15:51.350Z,98149.53
2022-12-08T23:18:21.680Z,98146.84
2022-12-08T23:20:49.407Z,98143.59
2022-12-08T23:23:16.690Z,98144.22
2022-12-08T23:28:34.325Z,98150.97
2022-12-08T23:31:01.120Z,98158.25
2022-12-08T23:33:28.599Z,98155.72
2022-12-08T23:35:58.077Z,98157.16
2022-12-08T23:38:26.411Z,98153.63
2022-12-08T23:40:53.790Z,98155.03
2022-12-08T23:43:21.609Z,98149.47
2022-12-08T23:45:48.579Z,98157.16
2022-12-08T23:48:15.720Z,98156.16
2022-12-08T23:50:43.079Z,98146.66
2022-12-08T23:53:10.506Z,98152.75
2022-12-08T23:55:37.591Z,98147.66
2022-12-08T23:58:05.606Z,98149.09
